createdAt,value
2019-02-07T00:00:40.000Z,3.27
2019-02-07T00:03:08.961Z,3.90
2019-02-07T00:05:37.597Z,3.63
2019-02-07T00:08:06.524Z,3.43
2019-02-07T00:10:35.139Z,3.23
2019-02-07T00:13:04.102Z,3.20
2019-02-07T00:18:11.255Z,3.37
2019-02-07T00:20:39.887Z,3.07
2019-02-07T00:23:08.541Z,3.50
2019-02-07T00:25:37.163Z,3.23
2019-02-07T00:28:05.800Z,4.13
2019-02-07T00:30:34.440Z,3.93
2019-02-07T00:33:03.253Z,4.00
2019-02-07T00:38:10.699Z,3.77
2019-02-07T00:40:39.693Z,3.43
2019-02-07T00:43:08.321Z,4.00
2019-02-07T00:45:37.267Z,3.73
2019-02-07T00:48:06.159Z,3.20
2019-02-07T00:50:34.777Z,3.10
2019-02-07T00:53:03.418Z,3.37
2019-02-07T00:58:10.968Z,2.90
2019-02-07T01:00:39.591Z,3.10
2019-02-07T01:03:08.237Z,3.10
2019-02-07T01:05:36.855Z,3.00
2019-02-07T01:08:05.493Z,3.10
2019-02-07T01:10:34.109Z,2.90
2019-02-07T01:13:02.981Z,3.03
2019-02-07T01:18:10.154Z,2.40
2019-02-07T01:20:38.787Z,2.00
2019-02-07T01:23:07.423Z,2.67
2019-02-07T01:25:36.057Z,2.00
2019-02-07T01:28:04.690Z,2.40
2019-02-07T01:33:11.865Z,2.40
2019-02-07T01:35:40.491Z,2.20
2019-02-07T01:38:09.114Z,2.07
2019-02-07T01:40:37.750Z,2.30
2019-02-07T01:43:06.373Z,1.80
2019-02-07T01:45:35.274Z,2.33
2019-02-07T01:48:04.277Z,2.17
2019-02-07T01:53:12.103Z,2.47
2019-02-07T01:55:40.727Z,2.03
2019-02-07T01:58:09.385Z,2.13
2019-02-07T02:00:38.027Z,2.70
2019-02-07T02:03:07.015Z,2.10
2019-02-07T02:05:36.000Z,2.40
2019-02-07T02:08:04.631Z,2.57
2019-02-07T02:10:33.263Z,2.33
2019-02-07T02:13:01.885Z,2.23
2019-02-07T02:18:09.413Z,2.53
2019-02-07T02:20:38.045Z,2.40
2019-02-07T02:23:06.692Z,2.50
2019-02-07T02:25:35.569Z,2.10
2019-02-07T02:28:04.509Z,2.27
2019-02-07T02:30:33.144Z,2.40
2019-02-07T02:33:01.784Z,2.50
2019-02-07T02:38:09.280Z,2.27
2019-02-07T02:40:37.911Z,2.27
2019-02-07T02:43:06.590Z,2.20
2019-02-07T02:45:37.837Z,2.40
2019-02-07T02:48:04.524Z,2.33
2019-02-07T02:50:33.526Z,2.10
2019-02-07T02:53:02.144Z,1.93
2019-02-07T02:55:31.091Z,2.37
2019-02-07T02:57:59.725Z,2.00
2019-02-07T03:00:28.365Z,1.90
2019-02-07T03:02:57.347Z,2.10
2019-02-07T03:05:26.351Z,2.30
2019-02-07T03:07:54.959Z,2.03
2019-02-07T03:10:23.733Z,2.63
2019-02-07T03:12:52.233Z,2.70
2019-02-07T03:15:20.867Z,2.53
2019-02-07T03:17:49.851Z,2.20
2019-02-07T03:20:18.485Z,2.67
2019-02-07T03:22:47.125Z,2.50
2019-02-07T03:25:15.783Z,1.60
2019-02-07T03:27:44.697Z,2.33
2019-02-07T03:30:13.357Z,1.63
2019-02-07T03:32:42.273Z,2.07
2019-02-07T03:35:11.259Z,1.80
2019-02-07T03:37:39.905Z,2.13
2019-02-07T03:40:08.530Z,1.83
2019-02-07T03:42:37.517Z,2.30
2019-02-07T03:45:06.159Z,1.80
2019-02-07T03:47:34.839Z,1.70
2019-02-07T03:50:03.449Z,1.87
2019-02-07T03:52:32.107Z,2.00
2019-02-07T03:55:01.041Z,2.00
2019-02-07T03:57:30.029Z,2.03
2019-02-07T03:59:59.009Z,1.90
2019-02-07T04:02:27.656Z,2.03
2019-02-07T04:04:56.606Z,1.90
2019-02-07T04:07:25.237Z,1.70
2019-02-07T04:09:54.164Z,1.60
2019-02-07T04:12:22.835Z,2.20
2019-02-07T04:14:51.785Z,2.10
2019-02-07T04:17:20.733Z,1.53
2019-02-07T04:19:49.724Z,1.40
2019-02-07T04:22:18.376Z,1.80
2019-02-07T04:24:47.301Z,1.57
2019-02-07T04:27:15.938Z,1.70
2019-02-07T04:29:44.568Z,2.13
2019-02-07T04:32:13.210Z,1.50
2019-02-07T04:34:42.130Z,1.67
2019-02-07T04:37:10.763Z,1.77
2019-02-07T04:39:39.382Z,1.40
2019-02-07T04:42:08.041Z,1.30
2019-02-07T04:44:36.685Z,0.93
2019-02-07T04:47:05.671Z,0.83
2019-02-07T04:49:34.310Z,0.83
2019-02-07T04:52:02.954Z,0.80
2019-02-07T04:54:31.566Z,0.90
2019-02-07T04:57:00.235Z,1.10
2019-02-07T04:59:29.173Z,0.97
2019-02-07T05:01:58.077Z,1.40
2019-02-07T05:04:27.058Z,0.90
2019-02-07T05:06:55.693Z,1.20
2019-02-07T05:09:24.803Z,1.13
2019-02-07T05:11:53.405Z,1.10
2019-02-07T05:14:22.034Z,1.00
2019-02-07T05:16:50.681Z,0.90
2019-02-07T05:19:19.302Z,1.00
2019-02-07T05:21:48.247Z,1.23
2019-02-07T05:24:16.934Z,1.07
2019-02-07T05:26:45.571Z,0.70
2019-02-07T05:29:14.500Z,1.03
2019-02-07T05:31:43.150Z,0.90
2019-02-07T05:34:12.077Z,1.00
2019-02-07T05:36:42.335Z,0.80
2019-02-07T05:39:09.697Z,0.90
2019-02-07T05:41:38.641Z,0.80
2019-02-07T05:44:07.286Z,0.90
2019-02-07T05:46:35.916Z,1.27
2019-02-07T05:49:04.563Z,1.00
2019-02-07T05:51:33.199Z,1.40
2019-02-07T05:54:01.834Z,1.90
2019-02-07T05:56:30.468Z,2.07
2019-02-07T05:58:59.477Z,1.00
2019-02-07T06:01:28.010Z,0.90
2019-02-07T06:03:56.650Z,1.20
2019-02-07T06:06:25.274Z,1.23
2019-02-07T06:08:53.905Z,1.07
2019-02-07T06:11:22.549Z,1.10
2019-02-07T06:13:51.185Z,1.50
2019-02-07T06:16:19.816Z,2.13
2019-02-07T06:18:48.467Z,2.20
2019-02-07T06:21:17.374Z,1.90
2019-02-07T06:26:25.446Z,1.90
2019-02-07T06:28:53.930Z,2.87
2019-02-07T06:31:22.570Z,4.20
2019-02-07T06:33:51.203Z,5.27
2019-02-07T06:36:19.827Z,5.43
2019-02-07T06:38:48.483Z,6.10
2019-02-07T06:41:17.397Z,5.43
2019-02-07T06:46:24.668Z,6.80
2019-02-07T06:48:53.251Z,6.67
2019-02-07T06:51:22.268Z,7.10
2019-02-07T06:53:51.284Z,6.50
2019-02-07T06:56:19.905Z,7.70
2019-02-07T06:58:49.156Z,6.73
2019-02-07T07:01:17.779Z,7.57
2019-02-07T07:03:46.424Z,6.77
2019-02-07T07:06:15.394Z,7.20
2019-02-07T07:11:22.584Z,8.20
2019-02-07T07:13:51.587Z,6.33
2019-02-07T07:16:20.210Z,6.50
2019-02-07T07:18:49.161Z,6.03
2019-02-07T07:21:17.779Z,4.93
2019-02-07T07:26:25.402Z,5.40
2019-02-07T07:28:54.033Z,4.43
2019-02-07T07:31:22.644Z,3.90
2019-02-07T07:33:51.272Z,3.87
2019-02-07T07:36:19.904Z,3.87
2019-02-07T07:38:48.872Z,3.83
2019-02-07T07:41:17.519Z,4.23
2019-02-07T07:46:24.778Z,3.23
2019-02-07T07:48:53.397Z,3.13
2019-02-07T07:51:22.026Z,4.83
2019-02-07T07:53:50.646Z,5.33
2019-02-07T07:56:19.580Z,3.87
2019-02-07T07:58:48.246Z,4.80
2019-02-07T08:01:17.262Z,4.07
2019-02-07T08:06:24.371Z,5.10
2019-02-07T08:08:53.009Z,3.97
2019-02-07T08:11:21.936Z,5.97
2019-02-07T08:13:50.919Z,4.73
2019-02-07T08:16:19.800Z,5.50
2019-02-07T08:18:48.463Z,5.10
2019-02-07T08:21:17.391Z,4.70
2019-02-07T08:23:46.031Z,5.43
2019-02-07T08:26:14.662Z,5.13
2019-02-07T08:31:22.200Z,5.70
2019-02-07T08:33:50.845Z,6.67
2019-02-07T08:36:19.831Z,6.47
2019-02-07T08:38:49.954Z,7.10
2019-02-07T08:41:17.089Z,6.67
2019-02-07T08:46:24.629Z,7.33
2019-02-07T08:48:53.266Z,7.40
2019-02-07T08:51:22.175Z,8.00
2019-02-07T08:53:51.169Z,7.40
2019-02-07T08:56:20.152Z,6.77
2019-02-07T08:58:49.149Z,5.93
2019-02-07T09:01:18.139Z,5.80
2019-02-07T09:03:46.788Z,6.00
2019-02-07T09:06:15.713Z,6.77
2019-02-07T09:08:44.705Z,6.13
2019-02-07T09:11:13.684Z,5.60
2019-02-07T09:13:42.607Z,5.53
2019-02-07T09:16:11.227Z,5.33
2019-02-07T09:21:18.415Z,5.27
2019-02-07T09:26:25.635Z,5.53
2019-02-07T09:28:54.655Z,5.40
2019-02-07T09:31:23.283Z,6.60
2019-02-07T09:33:51.914Z,5.50
2019-02-07T09:36:20.558Z,5.80
2019-02-07T09:38:49.495Z,6.23
2019-02-07T09:41:18.126Z,5.93
2019-02-07T09:46:26.880Z,5.93
2019-02-07T09:48:55.911Z,5.83
2019-02-07T09:51:24.897Z,6.33
2019-02-07T09:53:53.525Z,5.73
2019-02-07T09:56:22.486Z,6.93
2019-02-07T09:58:51.465Z,6.10
2019-02-07T10:01:20.098Z,6.80
2019-02-07T10:03:48.744Z,6.00
2019-02-07T10:06:17.708Z,6.00
2019-02-07T10:08:46.701Z,5.63
2019-02-07T10:11:15.333Z,6.40
2019-02-07T10:16:22.826Z,5.43
2019-02-07T10:18:51.449Z,6.10
2019-02-07T10:21:20.466Z,5.30
2019-02-07T10:23:49.438Z,6.53
2019-02-07T10:26:17.996Z,6.13
2019-02-07T10:31:25.285Z,5.80
2019-02-07T10:33:53.913Z,5.43
2019-02-07T10:36:22.909Z,6.30
2019-02-07T10:38:51.521Z,6.07
2019-02-07T10:41:20.159Z,6.10
2019-02-07T10:43:49.167Z,6.07
2019-02-07T10:46:17.899Z,5.77
2019-02-07T10:51:25.363Z,5.77
2019-02-07T10:53:53.988Z,6.60
2019-02-07T10:56:22.969Z,7.07
2019-02-07T10:58:51.589Z,6.93
2019-02-07T11:01:20.224Z,8.00
2019-02-07T11:03:49.185Z,7.00
2019-02-07T11:06:17.834Z,7.10
2019-02-07T11:11:25.076Z,8.10
2019-02-07T11:13:53.701Z,7.70
2019-02-07T11:16:22.333Z,8.10
2019-02-07T11:18:55.516Z,7.83
2019-02-07T11:21:19.897Z,7.77
2019-02-07T11:23:48.895Z,8.10
2019-02-07T11:26:17.540Z,7.97
2019-02-07T11:31:25.089Z,7.53
2019-02-07T11:33:53.733Z,7.40
2019-02-07T11:36:22.359Z,7.43
2019-02-07T11:38:50.981Z,7.67
2019-02-07T11:41:19.916Z,8.23
2019-02-07T11:43:48.910Z,8.00
2019-02-07T11:46:17.551Z,7.77
2019-02-07T11:51:24.804Z,8.60
2019-02-07T11:53:53.431Z,7.80
2019-02-07T11:56:22.080Z,8.40
2019-02-07T11:58:50.729Z,8.03
2019-02-07T12:01:19.765Z,8.43
2019-02-07T12:03:48.730Z,9.07
2019-02-07T12:06:17.400Z,8.77
2019-02-07T12:08:46.045Z,8.90
2019-02-07T12:11:14.990Z,8.80
2019-02-07T12:13:43.604Z,11.43
2019-02-07T12:16:12.567Z,9.97
2019-02-07T12:18:41.547Z,10.40
2019-02-07T12:21:10.182Z,10.00
2019-02-07T12:26:17.740Z,9.43
2019-02-07T12:28:46.431Z,9.93
2019-02-07T12:31:15.062Z,11.00
2019-02-07T12:33:43.695Z,10.47
2019-02-07T12:36:12.364Z,9.00
2019-02-07T12:38:40.988Z,9.20
2019-02-07T12:41:09.942Z,9.37
2019-02-07T12:43:38.564Z,9.27
2019-02-07T12:46:07.517Z,9.23
2019-02-07T12:48:36.408Z,8.27
2019-02-07T12:51:05.062Z,9.97
2019-02-07T12:53:33.707Z,7.90
2019-02-07T12:56:02.339Z,8.43
2019-02-07T12:58:30.986Z,8.57
2019-02-07T13:00:59.642Z,8.67
2019-02-07T13:03:28.611Z,8.70
2019-02-07T13:05:57.596Z,8.70
2019-02-07T13:08:26.245Z,7.57
2019-02-07T13:10:55.181Z,9.10
2019-02-07T13:13:23.841Z,8.60
2019-02-07T13:15:52.470Z,8.97
2019-02-07T13:18:21.400Z,8.47
2019-02-07T13:20:50.322Z,8.90
2019-02-07T13:23:18.952Z,8.60
2019-02-07T13:25:47.656Z,8.20
2019-02-07T13:28:16.275Z,9.57
2019-02-07T13:30:45.287Z,8.77
2019-02-07T13:33:14.267Z,8.57
2019-02-07T13:35:42.880Z,8.47
2019-02-07T13:38:11.830Z,8.57
2019-02-07T13:40:40.438Z,8.97
2019-02-07T13:43:09.078Z,8.87
2019-02-07T13:45:37.695Z,9.47
2019-02-07T13:48:06.334Z,11.00
2019-02-07T13:50:34.975Z,8.97
2019-02-07T13:53:03.929Z,9.83
2019-02-07T13:55:32.919Z,9.10
2019-02-07T13:58:01.568Z,9.37
2019-02-07T14:00:30.494Z,9.70
2019-02-07T14:02:59.122Z,8.90
2019-02-07T14:05:27.757Z,9.77
2019-02-07T14:07:56.741Z,9.97
2019-02-07T14:10:25.867Z,9.57
2019-02-07T14:12:54.829Z,9.97
2019-02-07T14:15:23.826Z,9.57
2019-02-07T14:17:52.813Z,10.60
2019-02-07T14:20:21.448Z,10.53
2019-02-07T14:22:50.209Z,10.23
2019-02-07T14:25:19.176Z,9.70
2019-02-07T14:27:48.170Z,10.43
2019-02-07T14:30:17.154Z,10.43
2019-02-07T14:32:45.797Z,11.07
2019-02-07T14:35:14.444Z,11.60
2019-02-07T14:37:43.093Z,12.73
2019-02-07T14:40:11.716Z,10.67
2019-02-07T14:42:40.359Z,12.37
2019-02-07T14:45:09.000Z,10.70
2019-02-07T14:47:37.945Z,11.47
2019-02-07T14:50:14.587Z,11.07
2019-02-07T14:52:35.516Z,11.70
2019-02-07T14:55:04.501Z,11.80
2019-02-07T14:57:33.508Z,13.30
2019-02-07T15:00:02.416Z,16.47
2019-02-07T15:02:31.068Z,13.13
2019-02-07T15:04:59.959Z,11.67
2019-02-07T15:07:28.607Z,11.73
2019-02-07T15:09:57.521Z,12.17
2019-02-07T15:12:26.153Z,11.53
2019-02-07T15:14:54.786Z,10.80
2019-02-07T15:17:23.427Z,12.50
2019-02-07T15:19:52.061Z,11.17
2019-02-07T15:22:20.708Z,11.37
2019-02-07T15:24:49.356Z,10.77
2019-02-07T15:27:17.989Z,11.90
2019-02-07T15:29:46.625Z,10.90
2019-02-07T15:32:15.260Z,12.77
2019-02-07T15:34:43.988Z,11.90
2019-02-07T15:37:12.626Z,10.97
2019-02-07T15:39:41.249Z,11.10
2019-02-07T15:42:10.220Z,11.07
2019-02-07T15:44:38.853Z,11.10
2019-02-07T15:47:08.874Z,11.47
2019-02-07T15:49:36.137Z,12.57
2019-02-07T15:52:04.779Z,11.20
2019-02-07T15:54:33.393Z,12.70
2019-02-07T15:57:02.322Z,10.73
2019-02-07T15:59:30.930Z,11.97
2019-02-07T16:01:59.555Z,12.30
2019-02-07T16:04:28.199Z,12.40
2019-02-07T16:06:56.832Z,13.50
2019-02-07T16:09:25.572Z,14.13
2019-02-07T16:11:54.199Z,11.37
2019-02-07T16:14:23.104Z,12.30
2019-02-07T16:16:51.730Z,13.43
2019-02-07T16:19:20.363Z,12.27
2019-02-07T16:21:49.368Z,12.53
2019-02-07T16:24:18.026Z,12.23
2019-02-07T16:26:46.934Z,11.97
2019-02-07T16:29:15.585Z,11.40
2019-02-07T16:31:44.194Z,12.23
2019-02-07T16:34:13.186Z,11.80
2019-02-07T16:36:41.817Z,11.63
2019-02-07T16:39:10.769Z,11.47
2019-02-07T16:41:39.380Z,12.33
2019-02-07T16:44:08.022Z,13.47
2019-02-07T16:46:37.028Z,13.10
2019-02-07T16:49:05.695Z,12.40
2019-02-07T16:51:34.293Z,12.13
2019-02-07T16:54:02.925Z,13.13
2019-02-07T16:56:31.829Z,12.37
2019-02-07T16:59:00.749Z,12.93
2019-02-07T17:01:29.739Z,12.87
2019-02-07T17:03:58.732Z,13.23
2019-02-07T17:06:27.725Z,12.33
2019-02-07T17:08:56.369Z,14.03
2019-02-07T17:11:25.010Z,13.30
2019-02-07T17:13:53.648Z,13.43
2019-02-07T17:16:22.296Z,13.37
2019-02-07T17:18:50.920Z,12.87
2019-02-07T17:21:19.563Z,14.90
2019-02-07T17:26:26.776Z,14.87
2019-02-07T17:28:55.425Z,13.20
2019-02-07T17:31:24.051Z,13.40
2019-02-07T17:33:52.669Z,14.50
2019-02-07T17:36:21.555Z,14.10
2019-02-07T17:38:50.192Z,15.00
2019-02-07T17:41:19.135Z,14.47
2019-02-07T17:43:47.780Z,14.70
2019-02-07T17:46:16.425Z,13.50
2019-02-07T17:48:45.390Z,14.00
2019-02-07T17:51:22.911Z,14.60
2019-02-07T17:53:43.368Z,15.30
2019-02-07T17:56:12.361Z,14.00
2019-02-07T17:58:40.997Z,13.00
2019-02-07T18:01:09.631Z,13.03
2019-02-07T18:03:38.259Z,12.33
2019-02-07T18:06:06.893Z,13.40
2019-02-07T18:08:35.525Z,14.27
2019-02-07T18:11:04.468Z,12.90
2019-02-07T18:13:33.111Z,13.27
2019-02-07T18:16:02.098Z,13.00
2019-02-07T18:18:30.741Z,14.27
2019-02-07T18:20:59.373Z,14.43
2019-02-07T18:23:28.011Z,14.07
2019-02-07T18:25:56.663Z,13.43
2019-02-07T18:28:25.329Z,13.43
2019-02-07T18:30:53.974Z,13.90
2019-02-07T18:33:22.650Z,14.37
2019-02-07T18:35:51.284Z,13.60
2019-02-07T18:38:19.936Z,13.03
2019-02-07T18:40:48.900Z,13.77
2019-02-07T18:43:17.538Z,12.33
2019-02-07T18:45:46.166Z,12.63
2019-02-07T18:48:14.801Z,12.93
2019-02-07T18:50:43.438Z,12.80
2019-02-07T18:53:12.404Z,12.43
2019-02-07T18:55:41.402Z,12.17
2019-02-07T18:58:10.078Z,12.03
2019-02-07T19:00:39.069Z,11.43
2019-02-07T19:03:07.694Z,12.30
2019-02-07T19:05:36.341Z,12.30
2019-02-07T19:08:04.961Z,12.63
2019-02-07T19:10:33.665Z,12.67
2019-02-07T19:13:02.585Z,12.50
2019-02-07T19:18:09.416Z,13.13
2019-02-07T19:20:38.062Z,13.73
2019-02-07T19:23:06.721Z,14.47
2019-02-07T19:25:35.366Z,16.10
2019-02-07T19:28:04.311Z,14.63
2019-02-07T19:30:33.306Z,15.80
2019-02-07T19:33:01.940Z,13.70
2019-02-07T19:35:30.886Z,15.33
2019-02-07T19:37:59.516Z,13.40
2019-02-07T19:40:28.156Z,13.67
2019-02-07T19:42:57.034Z,13.63
2019-02-07T19:45:26.779Z,14.17
2019-02-07T19:47:55.404Z,14.70
2019-02-07T19:50:27.044Z,13.90
2019-02-07T19:52:55.678Z,13.37
2019-02-07T19:55:30.451Z,13.13
2019-02-07T19:57:59.072Z,14.63
2019-02-07T20:00:30.431Z,13.67
2019-02-07T20:02:59.405Z,14.37
2019-02-07T20:05:28.115Z,12.93
2019-02-07T20:07:56.723Z,14.07
2019-02-07T20:10:25.382Z,12.57
2019-02-07T20:12:54.350Z,12.20
2019-02-07T20:15:29.435Z,11.87
2019-02-07T20:18:00.031Z,13.33
2019-02-07T20:20:26.700Z,11.60
2019-02-07T20:22:55.340Z,13.47
2019-02-07T20:25:23.991Z,13.77
2019-02-07T20:27:52.637Z,23.43
2019-02-07T20:30:30.701Z,13.63
2019-02-07T20:32:59.354Z,12.00
2019-02-07T20:35:27.993Z,12.60
2019-02-07T20:37:56.629Z,12.33
2019-02-07T20:40:25.315Z,12.03
2019-02-07T20:42:54.221Z,12.80
2019-02-07T20:45:22.864Z,12.53
2019-02-07T20:47:51.792Z,13.37
2019-02-07T20:50:20.783Z,13.97
2019-02-07T20:52:49.418Z,14.47
2019-02-07T20:55:18.041Z,13.40
2019-02-07T20:57:46.684Z,13.67
2019-02-07T21:00:21.456Z,15.20
2019-02-07T21:02:50.105Z,14.13
2019-02-07T21:05:18.743Z,13.07
2019-02-07T21:07:47.387Z,14.00
2019-02-07T21:12:54.377Z,13.83
2019-02-07T21:15:23.029Z,13.53
2019-02-07T21:17:51.668Z,13.13
2019-02-07T21:20:23.019Z,13.77
2019-02-07T21:22:52.004Z,13.43
2019-02-07T21:28:10.894Z,12.53
2019-02-07T21:30:39.540Z,12.77
2019-02-07T21:33:08.168Z,12.80
2019-02-07T21:35:36.791Z,13.97
2019-02-07T21:38:05.447Z,13.30
2019-02-07T21:40:34.399Z,12.73
2019-02-07T21:43:03.036Z,12.87
2019-02-07T21:45:31.673Z,13.40
2019-02-07T21:48:00.314Z,13.40
2019-02-07T21:50:28.956Z,13.23
2019-02-07T21:52:57.842Z,13.13
2019-02-07T21:55:26.487Z,13.43
2019-02-07T21:57:55.334Z,16.10
2019-02-07T22:00:26.748Z,17.47
2019-02-07T22:02:55.729Z,15.23
2019-02-07T22:05:24.360Z,13.37
2019-02-07T22:07:53.002Z,14.27
2019-02-07T22:10:21.980Z,12.80
2019-02-07T22:12:50.619Z,13.27
2019-02-07T22:15:19.252Z,13.50
2019-02-07T22:17:47.897Z,13.73
2019-02-07T22:22:55.155Z,13.00
2019-02-07T22:25:23.771Z,12.97
2019-02-07T22:27:52.716Z,13.07
2019-02-07T22:33:00.622Z,12.67
2019-02-07T22:35:29.263Z,12.97
2019-02-07T22:37:57.911Z,15.00
2019-02-07T22:40:26.876Z,13.87
2019-02-07T22:42:55.504Z,13.53
2019-02-07T22:48:02.706Z,14.43
2019-02-07T22:50:31.345Z,12.97
2019-02-07T22:52:59.996Z,19.47
2019-02-07T22:55:28.659Z,17.57
2019-02-07T22:57:57.295Z,13.97
2019-02-07T23:00:29.186Z,12.80
2019-02-07T23:02:58.146Z,14.43
2019-02-07T23:05:26.775Z,13.43
2019-02-07T23:07:55.444Z,13.07
2019-02-07T23:13:02.950Z,13.63
2019-02-07T23:15:31.530Z,13.30
2019-02-07T23:18:00.480Z,13.00
2019-02-07T23:20:29.461Z,12.97
2019-02-07T23:23:05.083Z,12.40
2019-02-07T23:25:26.747Z,13.70
2019-02-07T23:27:55.391Z,12.80
2019-02-07T23:30:24.027Z,13.03
2019-02-07T23:32:52.993Z,13.73
2019-02-07T23:35:21.628Z,13.80
2019-02-07T23:37:50.269Z,12.90
2019-02-07T23:40:18.909Z,12.70
2019-02-07T23:42:47.539Z,12.60
2019-02-07T23:45:16.177Z,12.77
2019-02-07T23:47:44.818Z,12.60
2019-02-07T23:50:13.464Z,13.37
2019-02-07T23:52:42.107Z,14.93
2019-02-07T23:55:10.771Z,13.93
2019-02-07T23:57:39.383Z,11.87
